17:36
Airports
Links
Donate
Help keep this website running!
PayPal
Bitcoin
METAR
LFRJ 191730Z AUTO 32010KT 9999 OVC006 09/09 Q1021 TEMPO 1000 BCFG VV///
Current Weather Conditions at LFRJ
IFR 17:30:00 19-02-18
Automated station, no observer
Altimeter:30.15 hg
Temp:9.0°c 48°f
Dew point:9.0°c 48°f
Wind:10 knots, 11.5 mph, 5 m/s, from 320°
Visibility:6.21 statute miles
600(OVC) Overcast
Past METAR reports
IFR 17:00:00 19-02-18
Automated station, no observer
Altimeter:30.15 hg
Temp:9.0°c 48°f
Dew point:9.0°c 48°f
Wind:9 knots, 10.4 mph, 5 m/s, from 320°
Visibility:6.21 statute miles
1000(OVC) Overcast
600(BKN) Broken
LFRJ 191700Z AUTO 32009KT 9999 BKN006 OVC010 09/09 Q1021 TEMPO 1000 BCFG VV///
IFR 16:30:00 19-02-18
Automated station, no observer
Altimeter:30.15 hg
Temp:9.0°c 48°f
Dew point:9.0°c 48°f
Wind:8 knots, 9.2 mph, 4 m/s, from 330°
Visibility:6.21 statute miles
1200(OVC) Overcast
700(BKN) Broken
LFRJ 191630Z AUTO 33008KT 9999 BKN007 OVC012 09/09 Q1021 TEMPO 1000 BCFG VV///
IFR 16:00:00 19-02-18
Automated station, no observer
Altimeter:30.15 hg
Temp:9.0°c 48°f
Dew point:9.0°c 48°f
Wind:8 knots, 9.2 mph, 4 m/s, from 330°
Visibility:6.21 statute miles
500(OVC) Overcast
LFRJ 191600Z AUTO 33008KT 9999 OVC005 09/09 Q1021 TEMPO 1000 BCFG VV///
LIFR 15:30:00 19-02-18
Automated station, no observer
Altimeter:30.15 hg
Temp:9.0°c 48°f
Dew point:9.0°c 48°f
Wind:8 knots, 9.2 mph, 4 m/s, from 330°
Visibility:6.21 statute miles
900(OVC) Overcast
400(BKN) Broken
LFRJ 191530Z AUTO 33008KT 9999 BKN004 OVC009 09/09 Q1021 TEMPO 1000 BCFG VV///
LIFR 15:00:00 19-02-18
Automated station, no observer
Altimeter:30.15 hg
Temp:9.0°c 48°f
Dew point:9.0°c 48°f
Wind:9 knots, 10.4 mph, 5 m/s, from 330°
Visibility:1.43 statute miles
0(OVX)
LFRJ 191500Z AUTO 33009KT 300V360 2300 0900 R26/1800U R08/P2000 BCFG VV/// 09/09 Q1021 TEMPO 5000
LIFR 14:30:00 19-02-18
Automated station, no observer
Altimeter:30.15 hg
Temp:9.0°c 48°f
Dew point:9.0°c 48°f
Wind:10 knots, 11.5 mph, 5 m/s, from 340°
Visibility:3.11 statute miles
0(OVX)
No significant weather changes expected within 2 hours.
LFRJ 191430Z AUTO 34010KT 5000 BR VV/// 09/09 Q1021 NOSIG
TAF
TAF LFRJ 191700Z 1918/2003 32010KT 9999 OVC006 PROB30 TEMPO 1918/2001 5000 BR OVC003
Forecast at LFRJ
18:00 19-02-18 to 03:00 20-02-18
Wind:10 Knots from 320°
Visibility:6.21 statute miles
600OVC Overcast
TEMPO 18:00 19-02-18 to 01:00 20-02-18
30% BR
Visibility:3.11 statute miles
300OVC Overcast